Time;durP1;ratioP1;P1;durP2;ratioP2;P2;SDS_P1;SDS_P2;PMS_P1;PMS_P2;Temp;Humidity;BMP_temperature;BMP_pressure;BME280_temperature;BME280_humidity;BME280_pressure;Samples;Min_cycle;Max_cycle;Signal;HPM_P1;HPM_P2
2024/01/17 00:00:55;;;;;;;16.93;10.50;;;5.70;80.70;;;;;;6277050;22;20000;-69
2024/01/17 00:03:20;;;;;;;19.47;12.43;;;5.70;80.30;;;;;;6276737;22;20078;-68
2024/01/17 00:05:47;;;;;;;19.53;11.67;;;5.70;80.80;;;;;;6276540;22;20000;-68
2024/01/17 00:08:13;;;;;;;22.50;12.80;;;5.70;81.20;;;;;;6276907;22;20432;-67
2024/01/17 00:10:38;;;;;;;19.67;12.00;;;5.70;81.20;;;;;;6276474;22;20042;-68
2024/01/17 00:13:04;;;;;;;19.47;11.63;;;5.70;81.20;;;;;;6276823;22;20000;-79
2024/01/17 00:15:30;;;;;;;21.27;11.63;;;5.60;81.30;;;;;;6277573;22;20035;-80
2024/01/17 00:17:56;;;;;;;19.03;11.87;;;5.70;81.40;;;;;;6276639;22;20024;-81
2024/01/17 00:20:22;;;;;;;21.10;12.70;;;5.60;81.40;;;;;;6276393;22;20003;-81
2024/01/17 00:22:49;;;;;;;21.83;12.63;;;5.60;81.50;;;;;;6276694;22;20000;-79
2024/01/17 00:25:15;;;;;;;19.87;12.30;;;5.60;81.50;;;;;;6276517;22;20051;-80
2024/01/17 00:27:41;;;;;;;18.53;11.43;;;5.60;81.70;;;;;;6277217;22;20016;-78
2024/01/17 00:30:07;;;;;;;18.07;11.30;;;5.60;81.60;;;;;;6276765;22;20319;-79
2024/01/17 00:32:34;;;;;;;20.60;11.40;;;5.60;82.00;;;;;;6277172;22;20011;-69
2024/01/17 00:35:00;;;;;;;18.03;10.20;;;5.60;82.50;;;;;;6277388;22;20318;-67
2024/01/17 00:37:26;;;;;;;14.97;9.33;;;5.60;82.10;;;;;;6277059;22;20006;-67
2024/01/17 00:39:52;;;;;;;15.40;8.97;;;5.60;82.00;;;;;;6276727;22;20330;-68
2024/01/17 00:42:24;;;;;;;14.57;8.73;;;5.60;82.40;;;;;;6276652;22;20417;-69
2024/01/17 01:09:05;;;;;;;13.67;8.33;;;5.60;85.50;;;;;;6036106;23;20023;-67
2024/01/17 01:11:32;;;;;;;15.93;8.27;;;5.60;86.00;;;;;;6008555;23;20371;-67
2024/01/17 01:13:59;;;;;;;13.87;8.60;;;5.60;86.00;;;;;;6147871;23;20350;-67
2024/01/17 01:16:25;;;;;;;13.53;8.00;;;5.60;86.00;;;;;;6213217;23;20004;-67
2024/01/17 01:18:51;;;;;;;15.27;8.60;;;5.60;86.00;;;;;;6245827;23;20000;-67
2024/01/17 01:21:17;;;;;;;15.00;8.53;;;5.60;86.20;;;;;;6245479;23;20000;-68
2024/01/17 01:23:43;;;;;;;17.00;8.83;;;5.60;87.00;;;;;;6245459;23;20000;-67
2024/01/17 01:26:09;;;;;;;15.47;8.77;;;5.60;87.50;;;;;;6244852;23;20011;-67
2024/01/17 01:28:35;;;;;;;12.63;7.53;;;5.50;88.60;;;;;;6245487;23;20000;-67
2024/01/17 01:31:00;;;;;;;12.73;7.47;;;5.60;88.50;;;;;;6245479;23;20004;-70
2024/01/17 01:33:26;;;;;;;10.50;6.40;;;5.60;88.30;;;;;;6245224;23;20095;-67
2024/01/17 01:35:52;;;;;;;15.00;8.07;;;5.60;88.50;;;;;;6245368;23;20007;-67
2024/01/17 01:38:18;;;;;;;14.73;8.73;;;5.60;88.40;;;;;;6245692;23;20003;-69
2024/01/17 01:40:44;;;;;;;13.47;7.50;;;5.60;89.30;;;;;;6245241;23;20101;-66
2024/01/17 01:43:23;;;;;;;13.27;8.07;;;5.60;90.80;;;;;;6245515;23;20086;-68
2024/01/17 01:46:14;;;;;;;13.30;7.90;;;5.60;90.70;;;;;;6245623;23;20000;-67
2024/01/17 01:48:41;;;;;;;12.87;8.00;;;5.60;90.90;;;;;;6231171;23;20027;-67
2024/01/17 01:51:08;;;;;;;12.70;7.93;;;5.60;92.40;;;;;;6245252;23;20008;-68
2024/01/17 01:53:35;;;;;;;14.40;8.23;;;5.60;92.70;;;;;;6245415;23;20007;-68
2024/01/17 01:56:02;;;;;;;12.40;7.93;;;5.60;93.20;;;;;;6245445;23;20004;-67
2024/01/17 01:58:30;;;;;;;13.90;7.90;;;5.50;93.90;;;;;;6243291;23;20004;-68
2024/01/17 02:00:56;;;;;;;13.53;7.43;;;5.50;95.30;;;;;;6241908;23;20008;-68
2024/01/17 02:03:23;;;;;;;12.50;7.00;;;5.50;95.40;;;;;;6241833;23;20000;-68
2024/01/17 02:05:49;;;;;;;12.23;7.37;;;5.50;95.40;;;;;;6244778;23;20000;-67
2024/01/17 02:08:15;;;;;;;10.93;6.70;;;5.50;95.90;;;;;;6268179;22;20057;-68
2024/01/17 02:10:41;;;;;;;12.17;6.37;;;5.50;96.60;;;;;;6275693;22;20010;-69
2024/01/17 02:13:07;;;;;;;9.37;5.20;;;5.50;97.30;;;;;;6275544;22;20075;-69
2024/01/17 02:15:33;;;;;;;9.27;5.70;;;5.50;97.50;;;;;;6275544;22;20034;-69
2024/01/17 02:18:00;;;;;;;8.80;4.77;;;5.50;97.70;;;;;;6275955;22;20087;-68
2024/01/17 02:20:26;;;;;;;7.40;4.53;;;5.40;97.20;;;;;;6275257;22;20024;-67
2024/01/17 02:22:52;;;;;;;9.30;5.00;;;5.50;97.30;;;;;;6275547;22;20011;-79
2024/01/17 02:25:18;;;;;;;8.57;4.77;;;5.40;97.40;;;;;;6275637;22;20002;-80
2024/01/17 02:27:44;;;;;;;7.70;4.00;;;5.40;97.40;;;;;;6275304;22;20071;-80
2024/01/17 02:30:12;;;;;;;7.03;4.70;;;5.50;97.70;;;;;;6275832;22;19996;-79
2024/01/17 02:32:38;;;;;;;7.33;4.20;;;5.50;97.80;;;;;;6274565;22;20075;-80
2024/01/17 02:35:04;;;;;;;7.53;4.43;;;5.50;97.90;;;;;;6275685;22;20031;-80
2024/01/17 02:37:30;;;;;;;10.27;5.07;;;5.50;97.70;;;;;;6275590;22;20430;-80
2024/01/17 02:39:56;;;;;;;7.73;4.30;;;5.60;97.40;;;;;;6275910;22;20006;-81
2024/01/17 02:42:22;;;;;;;9.50;5.20;;;5.60;97.60;;;;;;6275644;22;20275;-80
2024/01/17 02:44:47;;;;;;;8.77;4.80;;;5.50;97.50;;;;;;6277015;22;20023;-68
2024/01/17 02:47:13;;;;;;;8.27;4.23;;;5.60;97.60;;;;;;6276428;22;20383;-68
2024/01/17 02:49:39;;;;;;;8.30;4.20;;;5.60;97.20;;;;;;6276355;22;19996;-67
2024/01/17 02:52:05;;;;;;;7.37;4.27;;;5.60;96.70;;;;;;6276376;22;20050;-67
2024/01/17 02:55:00;;;;;;;6.93;4.00;;;5.60;96.50;;;;;;6276296;22;20000;-68
2024/01/17 03:12:47;;;;;;;5.63;3.60;;;5.60;96.10;;;;;;5897525;24;20035;-68
2024/01/17 03:15:49;;;;;;;7.47;4.37;;;5.60;95.70;;;;;;5896543;24;20024;-66
2024/01/17 03:19:12;;;;;;;;;;;;;;;;;;;;;
2024/01/17 03:21:49;;;;;;;6.13;3.40;;;5.60;95.90;;;;;;5780068;24;20093;-68
2024/01/17 03:24:15;;;;;;;5.57;3.77;;;5.60;95.80;;;;;;5902523;24;20368;-68
2024/01/17 03:26:40;;;;;;;5.87;3.90;;;5.60;95.80;;;;;;5925443;24;20088;-68
2024/01/17 03:29:06;;;;;;;6.10;3.37;;;5.60;95.80;;;;;;6200080;22;20047;-67
2024/01/17 03:31:32;;;;;;;6.53;3.77;;;5.60;95.30;;;;;;6277531;22;20008;-67
2024/01/17 03:33:58;;;;;;;5.80;3.63;;;5.60;95.10;;;;;;6277545;22;20406;-67
2024/01/17 03:36:24;;;;;;;5.43;3.63;;;5.60;95.20;;;;;;6277353;22;20007;-66
2024/01/17 03:38:49;;;;;;;5.50;3.33;;;5.60;95.10;;;;;;6277113;22;19996;-70
2024/01/17 03:41:15;;;;;;;5.27;3.47;;;5.60;95.00;;;;;;6277172;22;20003;-67
2024/01/17 03:43:41;;;;;;;6.90;3.57;;;5.70;94.90;;;;;;6277208;22;20004;-66
2024/01/17 03:46:07;;;;;;;6.93;3.23;;;5.60;94.30;;;;;;6277237;22;20000;-69
2024/01/17 03:48:33;;;;;;;5.43;3.47;;;5.70;93.90;;;;;;6276913;22;20085;-67
2024/01/17 03:50:59;;;;;;;5.87;3.50;;;5.70;93.90;;;;;;6276987;22;20053;-67
2024/01/17 03:53:24;;;;;;;6.43;4.13;;;5.60;93.80;;;;;;6276800;22;19999;-68
2024/01/17 03:55:50;;;;;;;6.43;3.40;;;5.70;93.90;;;;;;6276993;22;20000;-68
2024/01/17 03:58:16;;;;;;;5.37;3.50;;;5.60;94.30;;;;;;6276871;22;19996;-69
2024/01/17 04:00:42;;;;;;;5.80;3.63;;;5.70;94.20;;;;;;6277208;22;20000;-68
2024/01/17 04:03:12;;;;;;;7.90;3.53;;;5.70;94.20;;;;;;6276636;22;20011;-68
2024/01/17 04:05:38;;;;;;;5.93;3.90;;;5.70;94.10;;;;;;6276631;22;20031;-68
2024/01/17 04:08:07;;;;;;;6.20;3.80;;;5.70;94.20;;;;;;6276652;22;20023;-67
2024/01/17 04:10:33;;;;;;;6.70;4.50;;;5.70;94.30;;;;;;6276881;22;20015;-67
2024/01/17 04:13:00;;;;;;;9.33;4.00;;;5.70;94.50;;;;;;6277024;22;20003;-68
2024/01/17 04:15:26;;;;;;;7.43;4.27;;;5.60;94.70;;;;;;6277043;22;20075;-67
2024/01/17 04:17:52;;;;;;;8.23;4.93;;;5.60;94.80;;;;;;6276593;22;20034;-67
2024/01/17 04:20:19;;;;;;;8.13;4.87;;;5.70;95.10;;;;;;6276930;22;19996;-67
2024/01/17 04:22:45;;;;;;;9.07;5.77;;;5.60;95.40;;;;;;6276928;22;20007;-67
2024/01/17 04:25:11;;;;;;;8.03;5.20;;;5.60;95.70;;;;;;6277037;22;20334;-67
2024/01/17 04:27:37;;;;;;;9.63;4.70;;;5.60;96.00;;;;;;6277727;22;20000;-68
2024/01/17 04:30:05;;;;;;;7.27;4.20;;;5.60;96.00;;;;;;6277309;22;20022;-68
2024/01/17 04:32:35;;;;;;;10.40;4.20;;;5.60;96.00;;;;;;6277199;22;20034;-67
2024/01/17 04:43:11;;;;;;;;;;;;;;;;;;;;;
2024/01/17 04:46:54;;;;;;;6.10;3.50;;;5.60;94.90;;;;;;6059083;23;20082;-66
2024/01/17 04:57:09;;;;;;;8.70;3.77;;;5.60;93.40;;;;;;5897700;24;20386;-68
2024/01/17 05:00:30;;;;;;;6.20;3.63;;;5.60;93.30;;;;;;5905311;24;20013;-68
2024/01/17 05:02:56;;;;;;;10.93;3.70;;;5.60;93.10;;;;;;5924287;24;20447;-68
2024/01/17 05:05:24;;;;;;;5.33;3.57;;;5.60;93.00;;;;;;5937202;23;20416;-66
2024/01/17 05:07:49;;;;;;;5.63;3.60;;;5.70;92.90;;;;;;6210175;22;20015;-70
2024/01/17 05:10:15;;;;;;;6.63;3.57;;;5.60;93.00;;;;;;6276218;22;20084;-68
2024/01/17 05:12:41;;;;;;;6.03;3.00;;;5.70;92.90;;;;;;6249243;22;20012;-68
2024/01/17 05:15:07;;;;;;;6.17;3.27;;;5.70;93.00;;;;;;6275903;22;20004;-67
2024/01/17 05:17:33;;;;;;;6.83;3.93;;;5.60;93.10;;;;;;6276011;22;20283;-68
2024/01/17 05:19:59;;;;;;;8.87;3.30;;;5.60;93.10;;;;;;6275361;22;20068;-67
2024/01/17 05:22:25;;;;;;;8.57;3.70;;;5.60;93.00;;;;;;6275593;22;19998;-67
2024/01/17 05:24:50;;;;;;;6.93;3.60;;;5.60;93.10;;;;;;6275165;22;20022;-68
2024/01/17 05:27:17;;;;;;;7.40;3.73;;;5.60;92.90;;;;;;6275829;22;20004;-67
2024/01/17 05:29:44;;;;;;;6.23;3.40;;;5.60;92.80;;;;;;6276602;22;20061;-70
2024/01/17 05:32:10;;;;;;;6.47;3.83;;;5.60;92.70;;;;;;6276467;22;20038;-66
2024/01/17 05:34:37;;;;;;;6.13;3.20;;;5.60;92.80;;;;;;6275851;22;20414;-68
2024/01/17 05:37:03;;;;;;;7.83;4.20;;;5.60;93.00;;;;;;6275316;22;20646;-66
2024/01/17 05:39:29;;;;;;;7.50;3.50;;;5.70;93.20;;;;;;6275598;22;20004;-68
2024/01/17 05:41:54;;;;;;;10.30;3.77;;;5.60;93.40;;;;;;6275642;22;20006;-79
2024/01/17 05:44:20;;;;;;;16.87;3.80;;;5.60;93.50;;;;;;6275623;22;20070;-80
2024/01/17 05:46:46;;;;;;;8.73;3.50;;;5.60;93.60;;;;;;6275500;22;19999;-80
2024/01/17 05:49:12;;;;;;;6.97;3.33;;;5.60;93.60;;;;;;6276018;22;20003;-81
2024/01/17 05:51:38;;;;;;;7.17;3.83;;;5.60;93.60;;;;;;6275952;22;20011;-80
2024/01/17 05:54:03;;;;;;;9.37;3.67;;;5.70;93.30;;;;;;6275737;22;19996;-80
2024/01/17 05:56:29;;;;;;;5.63;3.13;;;5.60;93.20;;;;;;6275574;22;20053;-80
2024/01/17 05:58:55;;;;;;;5.83;3.67;;;5.60;93.50;;;;;;6275941;22;20027;-80
2024/01/17 06:01:21;;;;;;;7.33;3.77;;;5.60;93.50;;;;;;6276100;22;20012;-79
2024/01/17 06:03:47;;;;;;;8.23;3.90;;;5.60;93.30;;;;;;6260017;22;20020;-67
2024/01/17 06:06:13;;;;;;;8.37;4.17;;;5.60;93.20;;;;;;6244922;23;20004;-67
2024/01/17 06:08:39;;;;;;;7.87;3.80;;;5.60;93.10;;;;;;6245088;23;20735;-67
2024/01/17 06:11:05;;;;;;;7.30;3.97;;;5.60;93.10;;;;;;6245482;23;20008;-67
2024/01/17 06:13:31;;;;;;;7.53;3.87;;;5.60;93.30;;;;;;6245229;23;20024;-67
2024/01/17 06:15:57;;;;;;;7.17;3.90;;;5.60;93.60;;;;;;6245402;23;20040;-70
2024/01/17 06:18:22;;;;;;;15.00;4.23;;;5.60;93.70;;;;;;6245310;23;20003;-66
2024/01/17 06:20:48;;;;;;;7.77;4.10;;;5.60;93.70;;;;;;6244969;23;20011;-67
2024/01/17 06:23:14;;;;;;;8.07;4.83;;;5.70;93.80;;;;;;6244878;23;20000;-68
2024/01/17 06:25:40;;;;;;;10.17;4.93;;;5.70;94.10;;;;;;6244798;23;20000;-67
2024/01/17 06:28:05;;;;;;;12.47;5.03;;;5.70;94.50;;;;;;6244918;23;20008;-67
2024/01/17 06:30:31;;;;;;;9.53;5.50;;;5.60;94.60;;;;;;6245211;23;20012;-67
2024/01/17 06:32:57;;;;;;;9.27;5.67;;;5.70;95.40;;;;;;6245321;23;20000;-68
2024/01/17 06:35:22;;;;;;;10.90;6.00;;;5.60;95.80;;;;;;6244885;23;20000;-67
2024/01/17 06:37:48;;;;;;;12.33;6.47;;;5.60;95.70;;;;;;6245027;23;20000;-69
2024/01/17 06:40:14;;;;;;;12.40;7.03;;;5.60;96.30;;;;;;6244915;23;20024;-67
2024/01/17 06:42:40;;;;;;;13.67;6.57;;;5.60;96.70;;;;;;6245150;23;20370;-78
2024/01/17 06:45:06;;;;;;;13.43;6.87;;;5.70;96.70;;;;;;6245116;23;19996;-80
2024/01/17 06:47:32;;;;;;;12.90;7.60;;;5.60;97.00;;;;;;6244649;23;20011;-77
2024/01/17 06:49:58;;;;;;;10.30;6.70;;;5.60;97.50;;;;;;6245483;23;20035;-78
2024/01/17 06:52:23;;;;;;;12.90;7.53;;;5.60;97.70;;;;;;6244869;23;20012;-78
2024/01/17 06:54:49;;;;;;;16.33;7.73;;;5.60;97.60;;;;;;6246380;23;20110;-80
2024/01/17 06:57:15;;;;;;;17.03;9.90;;;5.60;98.00;;;;;;6247160;23;20013;-79
2024/01/17 06:59:42;;;;;;;17.93;10.17;;;5.60;98.20;;;;;;6246939;23;20385;-79
2024/01/17 07:02:08;;;;;;;17.53;10.00;;;5.60;97.70;;;;;;6246146;23;20000;-79
2024/01/17 07:04:34;;;;;;;15.03;8.97;;;5.70;97.50;;;;;;6246372;23;20071;-73
2024/01/17 07:07:00;;;;;;;19.70;9.20;;;5.70;97.70;;;;;;6246247;23;20011;-73
2024/01/17 07:09:25;;;;;;;14.37;9.23;;;5.60;98.60;;;;;;6246431;23;19996;-75
2024/01/17 07:11:51;;;;;;;16.83;9.63;;;5.60;99.20;;;;;;6246291;23;20466;-68
2024/01/17 07:14:17;;;;;;;16.00;9.43;;;5.60;99.90;;;;;;6247263;23;20414;-66
2024/01/17 07:29:08;;;;;;;13.13;6.77;;;5.60;99.90;;;;;;5980289;24;20110;-68
2024/01/17 07:32:17;;;;;;;10.63;7.13;;;5.50;99.90;;;;;;5875453;24;20047;-66
2024/01/17 07:35:30;;;;;;;13.30;6.90;;;5.50;99.90;;;;;;5898056;24;20116;-65
2024/01/17 07:42:24;;;;;;;;;;;;;;;;;;;;;
2024/01/17 07:44:50;;;;;;;11.23;6.67;;;5.50;99.90;;;;;;6057724;23;20714;-65
2024/01/17 07:47:17;;;;;;;13.63;6.43;;;5.50;99.90;;;;;;6141481;23;20039;-65
2024/01/17 07:49:44;;;;;;;10.83;5.37;;;5.40;99.90;;;;;;6244473;23;20326;-65
2024/01/17 07:52:10;;;;;;;11.63;6.57;;;5.50;99.90;;;;;;6244687;23;20330;-66
2024/01/17 07:54:36;;;;;;;8.97;5.43;;;5.40;99.90;;;;;;6245957;23;20003;-66
2024/01/17 07:57:04;;;;;;;9.13;5.73;;;5.50;99.90;;;;;;6245689;23;20012;-66
2024/01/17 07:59:30;;;;;;;14.37;6.17;;;5.40;99.90;;;;;;6246006;23;20003;-84
2024/01/17 08:01:55;;;;;;;11.33;6.30;;;5.50;99.90;;;;;;6245925;23;20008;-82
2024/01/17 08:04:22;;;;;;;20.07;7.00;;;5.50;99.90;;;;;;6246214;23;20008;-87
2024/01/17 08:06:48;;;;;;;11.57;6.77;;;5.40;99.90;;;;;;6246474;23;20004;-77
2024/01/17 08:09:20;;;;;;;13.00;7.13;;;5.50;99.90;;;;;;6246399;23;20414;-75
2024/01/17 08:11:54;;;;;;;15.40;6.93;;;5.50;99.90;;;;;;6245995;23;20043;-76
2024/01/17 08:14:20;;;;;;;10.60;5.90;;;5.50;99.90;;;;;;6245613;23;20445;-75
2024/01/17 08:16:47;;;;;;;9.47;5.90;;;5.50;99.90;;;;;;6245213;23;20009;-75
2024/01/17 08:19:14;;;;;;;11.40;5.27;;;5.60;99.90;;;;;;6246165;23;20437;-76
2024/01/17 08:21:41;;;;;;;12.80;6.40;;;5.50;99.90;;;;;;6246483;23;20015;-75
2024/01/17 08:24:07;;;;;;;12.03;6.13;;;5.60;99.90;;;;;;6245754;23;20004;-76
2024/01/17 08:26:32;;;;;;;10.00;5.30;;;5.60;99.90;;;;;;6245869;23;20005;-76
2024/01/17 08:28:59;;;;;;;12.17;5.17;;;5.60;99.90;;;;;;6246054;23;20054;-76
2024/01/17 08:31:25;;;;;;;7.47;4.93;;;5.60;99.90;;;;;;6245971;23;20012;-76
2024/01/17 08:33:51;;;;;;;10.70;5.77;;;5.60;99.90;;;;;;6245648;23;20000;-76
2024/01/17 08:36:17;;;;;;;12.53;5.97;;;5.60;99.90;;;;;;6246293;23;20078;-74
2024/01/17 08:38:43;;;;;;;10.07;6.20;;;5.60;99.90;;;;;;6246011;23;20008;-76
2024/01/17 08:41:09;;;;;;;11.80;6.97;;;5.60;99.90;;;;;;6245003;23;20027;-76
2024/01/17 08:43:35;;;;;;;21.37;11.10;;;5.60;99.90;;;;;;6244807;23;20046;-76
2024/01/17 08:46:02;;;;;;;21.27;11.60;;;5.60;99.90;;;;;;6246192;23;20012;-76
2024/01/17 08:48:28;;;;;;;24.90;12.80;;;5.70;99.90;;;;;;6246332;23;20000;-75
2024/01/17 08:50:55;;;;;;;25.63;13.90;;;5.70;99.90;;;;;;6246919;23;20035;-76
2024/01/17 08:53:21;;;;;;;23.47;14.27;;;5.70;99.90;;;;;;6246980;23;20006;-76
2024/01/17 08:55:48;;;;;;;27.33;15.20;;;5.70;99.90;;;;;;6246890;23;20075;-76
2024/01/17 08:58:14;;;;;;;24.67;13.67;;;5.70;99.90;;;;;;6246480;23;20000;-75
2024/01/17 09:08:29;;;;;;;;;;;5.80;99.90;;;;;;6037152;23;20018;-79
2024/01/17 09:15:12;;;;;;;22.80;13.30;;;5.70;99.90;;;;;;5869397;24;20421;-78
2024/01/17 09:21:36;;;;;;;20.33;11.50;;;5.70;99.90;;;;;;5877432;24;20020;-74
2024/01/17 09:24:59;;;;;;;21.55;12.05;;;5.70;99.90;;;;;;5897932;24;20045;-76
2024/01/17 09:27:25;;;;;;;20.17;11.43;;;5.70;99.90;;;;;;5898227;24;20009;-75
2024/01/17 09:29:51;;;;;;;18.43;11.53;;;5.70;99.90;;;;;;6003022;23;20030;-78
2024/01/17 09:32:17;;;;;;;19.10;11.27;;;5.70;99.90;;;;;;6211132;23;20008;-78
2024/01/17 09:34:44;;;;;;;16.13;10.40;;;5.70;99.90;;;;;;6245846;23;20004;-77
2024/01/17 09:37:10;;;;;;;19.27;11.07;;;5.70;99.90;;;;;;6245960;23;19996;-78
2024/01/17 09:39:36;;;;;;;24.07;11.37;;;5.70;99.90;;;;;;6245661;23;20000;-77
2024/01/17 09:42:05;;;;;;;20.37;11.90;;;5.70;99.90;;;;;;6219046;23;20079;-77
2024/01/17 09:44:31;;;;;;;18.10;11.27;;;5.80;99.90;;;;;;6246027;23;20004;-78
2024/01/17 09:47:00;;;;;;;21.47;11.97;;;5.80;99.90;;;;;;6245615;23;20031;-78
2024/01/17 09:49:29;;;;;;;20.73;11.50;;;5.80;99.90;;;;;;6245133;23;20371;-76
2024/01/17 09:51:55;;;;;;;16.67;11.43;;;5.90;99.90;;;;;;6243673;23;20019;-72
2024/01/17 09:54:25;;;;;;;19.03;12.33;;;5.90;99.90;;;;;;6245017;23;20000;-75
2024/01/17 09:56:53;;;;;;;20.43;12.17;;;5.90;99.90;;;;;;6245363;23;20411;-77
2024/01/17 09:59:25;;;;;;;25.07;13.20;;;5.90;99.90;;;;;;6245549;23;20139;-77
2024/01/17 10:01:50;;;;;;;21.63;12.03;;;5.90;99.90;;;;;;6245762;23;20015;-74
2024/01/17 10:04:19;;;;;;;21.33;13.30;;;6.00;99.90;;;;;;6243599;23;20012;-76
2024/01/17 10:06:46;;;;;;;20.63;12.60;;;6.00;99.90;;;;;;6243293;23;20480;-77
2024/01/17 10:09:14;;;;;;;24.80;13.97;;;6.00;99.90;;;;;;6246030;23;20144;-77
2024/01/17 10:11:40;;;;;;;27.07;14.37;;;6.00;99.90;;;;;;6245987;23;20491;-76
2024/01/17 10:14:06;;;;;;;22.20;13.37;;;6.00;99.90;;;;;;6245401;23;20004;-77
2024/01/17 10:16:32;;;;;;;28.73;14.57;;;6.00;99.90;;;;;;6246042;23;20087;-76
2024/01/17 10:19:00;;;;;;;22.57;14.07;;;6.00;99.90;;;;;;6245615;23;20000;-76
2024/01/17 10:21:26;;;;;;;24.57;13.43;;;6.10;99.90;;;;;;6245528;23;20003;-77
2024/01/17 10:23:51;;;;;;;23.77;14.17;;;6.00;99.90;;;;;;6245434;23;20062;-76
2024/01/17 10:26:17;;;;;;;20.73;13.53;;;6.10;99.90;;;;;;6245815;23;20000;-75
2024/01/17 10:28:45;;;;;;;27.47;16.23;;;6.10;99.90;;;;;;6246037;23;20000;-78
2024/01/17 10:31:11;;;;;;;27.83;16.67;;;6.10;99.90;;;;;;6248447;23;20384;-77
2024/01/17 10:33:39;;;;;;;20.80;13.90;;;6.10;99.90;;;;;;6248843;23;20012;-77
2024/01/17 10:36:05;;;;;;;20.53;11.47;;;6.10;99.90;;;;;;6248443;23;20000;-77
2024/01/17 10:38:32;;;;;;;18.57;10.87;;;6.10;99.90;;;;;;6248673;23;20024;-77
2024/01/17 10:41:10;;;;;;;21.13;10.97;;;6.10;99.90;;;;;;6248391;23;20371;-76
2024/01/17 10:44:19;;;;;;;;;;;;;;;;;;;;;
2024/01/17 10:47:23;;;;;;;20.03;10.87;;;6.10;99.90;;;;;;6195376;23;20083;-78
2024/01/17 10:57:08;;;;;;;20.27;12.20;;;6.10;99.90;;;;;;6125365;23;20038;-75
2024/01/17 11:02:55;;;;;;;20.80;10.90;;;6.10;99.90;;;;;;6125603;23;20458;-77
2024/01/17 11:09:01;;;;;;;23.97;13.43;;;6.10;99.90;;;;;;6140570;23;20056;-77
2024/01/17 11:11:29;;;;;;;24.70;14.03;;;6.00;99.90;;;;;;6247435;23;20118;-76
2024/01/17 11:13:56;;;;;;;27.67;15.07;;;6.10;99.90;;;;;;6247381;23;20327;-78
2024/01/17 11:16:23;;;;;;;26.50;14.87;;;6.10;99.90;;;;;;6246840;23;20338;-76
2024/01/17 11:18:50;;;;;;;22.67;15.83;;;6.10;99.90;;;;;;6247073;23;19996;-77
2024/01/17 11:21:20;;;;;;;24.43;15.03;;;6.10;99.90;;;;;;6246741;23;20004;-75
2024/01/17 11:24:08;;;;;;;23.07;15.00;;;6.10;99.90;;;;;;6246892;23;20000;-77
2024/01/17 11:26:52;;;;;;;28.87;15.67;;;6.10;99.90;;;;;;6246360;23;20003;-78
2024/01/17 11:29:33;;;;;;;27.63;17.60;;;6.00;99.90;;;;;;6246872;23;20005;-76
2024/01/17 11:32:28;;;;;;;21.70;15.87;;;6.10;99.90;;;;;;6246650;23;20374;-77
2024/01/17 11:34:54;;;;;;;31.43;16.57;;;6.10;99.90;;;;;;6246619;23;20344;-77
2024/01/17 11:37:38;;;;;;;20.17;12.77;;;6.10;99.90;;;;;;6246893;23;20055;-77
2024/01/17 11:40:05;;;;;;;19.40;12.80;;;6.10;99.90;;;;;;6245930;23;20425;-77
2024/01/17 11:42:34;;;;;;;19.40;13.30;;;6.10;99.90;;;;;;6246435;23;20071;-74
2024/01/17 11:45:03;;;;;;;20.27;13.30;;;6.10;99.90;;;;;;6246843;23;20087;-77
2024/01/17 11:47:28;;;;;;;423.33;37.60;;;6.00;99.90;;;;;;6246462;23;20377;-74
2024/01/17 11:49:57;;;;;;;30.57;15.53;;;6.00;99.90;;;;;;6245808;23;20003;-76
2024/01/17 11:52:35;;;;;;;16.70;13.17;;;6.10;99.90;;;;;;6219866;23;20019;-76
2024/01/17 11:55:02;;;;;;;23.70;13.83;;;6.10;99.90;;;;;;6246295;23;20386;-77
2024/01/17 11:57:32;;;;;;;21.27;14.40;;;6.10;99.90;;;;;;6246538;23;19997;-77
2024/01/17 12:00:09;;;;;;;36.30;14.93;;;6.10;99.90;;;;;;6246330;23;20000;-78
2024/01/17 12:02:43;;;;;;;22.33;15.57;;;6.10;99.90;;;;;;6246509;23;20000;-77
2024/01/17 12:05:10;;;;;;;28.60;16.17;;;6.10;99.90;;;;;;6246360;23;19996;-78
2024/01/17 12:07:38;;;;;;;23.57;15.43;;;6.10;99.90;;;;;;6244924;23;20051;-78
2024/01/17 12:10:09;;;;;;;26.00;15.80;;;6.00;99.90;;;;;;6246365;23;20423;-78
2024/01/17 12:12:40;;;;;;;23.07;15.90;;;6.00;99.90;;;;;;6246207;23;20445;-78
2024/01/17 12:15:09;;;;;;;23.37;15.77;;;6.00;99.90;;;;;;6246897;23;20296;-77
2024/01/17 12:17:38;;;;;;;19.33;14.37;;;6.00;99.90;;;;;;6247022;23;20308;-76
2024/01/17 12:20:06;;;;;;;21.23;13.23;;;6.00;99.90;;;;;;6247093;23;20001;-75
2024/01/17 12:22:36;;;;;;;18.97;12.73;;;6.00;99.90;;;;;;6247073;23;20341;-76
2024/01/17 12:49:17;;;;;;;16.03;11.30;;;5.90;99.90;;;;;;5957423;24;20023;-77
2024/01/17 12:51:43;;;;;;;17.60;11.70;;;5.90;99.90;;;;;;5980303;24;20391;-77
2024/01/17 12:54:09;;;;;;;16.77;10.27;;;5.90;99.90;;;;;;6085402;23;20341;-75
2024/01/17 12:56:36;;;;;;;17.13;10.77;;;5.90;99.90;;;;;;6230291;23;20382;-77
2024/01/17 12:59:02;;;;;;;14.67;10.07;;;5.80;99.90;;;;;;6246273;23;20315;-76
2024/01/17 13:01:31;;;;;;;16.40;10.37;;;5.80;99.90;;;;;;6218955;23;20339;-77
2024/01/17 13:04:07;;;;;;;17.50;10.50;;;5.80;99.90;;;;;;6219404;23;20335;-78
2024/01/17 13:06:46;;;;;;;15.70;9.70;;;5.80;99.90;;;;;;6242712;23;20032;-76
2024/01/17 13:09:16;;;;;;;15.53;10.07;;;5.80;99.90;;;;;;6241384;23;20070;-72
2024/01/17 13:11:53;;;;;;;18.90;10.60;;;5.80;99.90;;;;;;6241784;23;20414;-76
2024/01/17 13:14:20;;;;;;;18.83;12.13;;;5.80;99.90;;;;;;6244844;23;20361;-76
2024/01/17 13:16:46;;;;;;;20.43;11.60;;;5.80;99.90;;;;;;6245166;23;20087;-74
2024/01/17 13:19:13;;;;;;;21.10;13.20;;;5.80;99.90;;;;;;6242999;23;20000;-76
2024/01/17 13:21:44;;;;;;;18.53;12.23;;;5.80;99.90;;;;;;6243012;23;20415;-70
2024/01/17 13:24:10;;;;;;;15.63;11.40;;;5.80;99.90;;;;;;6245152;23;20426;-76
2024/01/17 13:26:37;;;;;;;17.43;10.87;;;5.80;99.90;;;;;;6245802;23;20080;-75
2024/01/17 13:29:04;;;;;;;16.93;11.03;;;5.80;99.90;;;;;;6245297;23;20480;-75
2024/01/17 13:31:31;;;;;;;17.50;11.27;;;5.80;99.90;;;;;;6245647;23;20047;-77
2024/01/17 13:33:58;;;;;;;22.33;12.90;;;5.80;99.90;;;;;;6245712;23;20003;-77
2024/01/17 13:36:25;;;;;;;20.00;13.53;;;5.80;99.90;;;;;;6243975;23;20004;-77
2024/01/17 13:38:52;;;;;;;19.13;13.57;;;5.80;99.90;;;;;;6242449;23;20071;-76
2024/01/17 13:41:19;;;;;;;23.23;13.90;;;5.80;99.90;;;;;;6243180;23;20004;-77
2024/01/17 13:43:45;;;;;;;21.23;14.63;;;5.80;99.90;;;;;;6245508;23;20000;-78
2024/01/17 13:46:11;;;;;;;24.03;14.90;;;5.80;99.90;;;;;;6245270;23;20300;-77
2024/01/17 13:48:39;;;;;;;28.20;14.77;;;5.80;99.90;;;;;;6245303;23;20003;-77
2024/01/17 13:51:09;;;;;;;27.50;17.00;;;5.80;99.90;;;;;;6246250;23;20015;-76
2024/01/17 13:53:41;;;;;;;25.33;18.43;;;5.80;99.90;;;;;;6246436;23;20000;-77
2024/01/17 13:56:09;;;;;;;33.87;23.00;;;5.80;99.90;;;;;;6246020;23;20381;-77
2024/01/17 13:58:38;;;;;;;32.60;22.70;;;5.80;99.90;;;;;;6246153;23;20004;-78
2024/01/17 14:01:05;;;;;;;33.73;25.77;;;5.80;99.90;;;;;;6245607;23;19996;-75
2024/01/17 14:17:51;;;;;;;;;;;;;;;;;;;;;
2024/01/17 14:27:42;;;;;;;22.60;15.90;;;5.90;99.90;;;;;;6092892;23;20006;-76
2024/01/17 14:30:09;;;;;;;25.27;17.80;;;5.90;99.90;;;;;;6092907;23;20377;-76
2024/01/17 14:32:36;;;;;;;22.87;16.63;;;5.90;99.90;;;;;;6118854;23;20502;-72
2024/01/17 14:35:02;;;;;;;26.37;18.23;;;6.00;99.90;;;;;;6217480;23;20370;-76
2024/01/17 14:37:28;;;;;;;24.47;18.73;;;5.90;99.90;;;;;;6244933;23;19996;-76
2024/01/17 14:39:54;;;;;;;27.03;19.23;;;5.90;99.90;;;;;;6244633;23;20030;-77
2024/01/17 14:42:24;;;;;;;27.87;19.67;;;6.00;99.90;;;;;;6244859;23;19996;-75
2024/01/17 14:44:50;;;;;;;34.10;25.23;;;6.00;99.90;;;;;;6244802;23;20007;-76
2024/01/17 14:47:16;;;;;;;32.97;22.20;;;6.00;99.90;;;;;;6244481;23;20007;-76
2024/01/17 14:49:42;;;;;;;29.33;22.07;;;6.00;99.90;;;;;;6244937;23;20079;-76
2024/01/17 14:52:08;;;;;;;24.83;20.63;;;6.00;99.90;;;;;;6244078;23;20012;-76
2024/01/17 14:54:34;;;;;;;53.03;37.30;;;6.00;99.90;;;;;;6244650;23;20027;-76
2024/01/17 14:57:00;;;;;;;63.17;48.43;;;6.00;99.90;;;;;;6244505;23;20035;-76
2024/01/17 14:59:26;;;;;;;53.33;44.20;;;6.00;99.90;;;;;;6244671;23;20000;-74
2024/01/17 15:01:52;;;;;;;40.30;34.33;;;6.00;99.90;;;;;;6244302;23;20005;-76
2024/01/17 15:04:18;;;;;;;26.50;21.97;;;6.10;99.90;;;;;;6244673;23;20054;-76
2024/01/17 15:06:43;;;;;;;21.70;18.03;;;6.00;99.90;;;;;;6243443;23;20043;-76
2024/01/17 15:09:16;;;;;;;16.90;13.77;;;6.00;99.90;;;;;;6218184;23;20394;-75
2024/01/17 15:11:49;;;;;;;16.90;12.73;;;6.10;99.90;;;;;;6244619;23;20438;-76
2024/01/17 15:14:14;;;;;;;16.27;12.65;;;6.10;99.90;;;;;;6244694;23;20039;-74
2024/01/17 15:16:41;;;;;;;16.93;13.00;;;6.10;99.90;;;;;;6246322;23;20004;-76
2024/01/17 15:19:10;;;;;;;16.87;13.63;;;6.10;99.90;;;;;;6246384;23;20000;-78
2024/01/17 15:21:36;;;;;;;16.80;12.83;;;6.10;99.90;;;;;;6246687;23;20012;-77
2024/01/17 15:24:02;;;;;;;17.40;13.47;;;6.10;99.90;;;;;;6245972;23;20008;-77
2024/01/17 15:26:28;;;;;;;19.87;12.63;;;6.10;99.90;;;;;;6245888;23;20371;-77